Time;durP1;ratioP1;P1;durP2;ratioP2;P2;SDS_P1;SDS_P2;PMS_P1;PMS_P2;Temp;Humidity;BMP_temperature;BMP_pressure;BME280_temperature;BME280_humidity;BME280_pressure;Samples;Min_cycle;Max_cycle;Signal;HPM_P1;HPM_P2
2023/03/04 16:00:27;;;;;;;26.13;13.97;;;;;;;6.23;65.72;99479.63;5072755;27;1447138;-77
2023/03/04 16:02:52;;;;;;;29.90;15.03;;;;;;;6.17;66.47;99483.75;5097627;28;20063;-79
2023/03/04 16:05:20;;;;;;;27.63;14.83;;;;;;;6.19;65.86;99491.56;5076790;28;20284;-78
2023/03/04 16:07:48;;;;;;;27.97;15.13;;;;;;;6.09;66.58;99490.84;5052036;28;20119;-78
2023/03/04 16:10:34;;;;;;;26.27;14.10;;;;;;;5.96;67.23;99493.13;5070184;28;20285;-78
2023/03/04 16:13:00;;;;;;;27.17;15.43;;;;;;;5.92;67.33;99497.06;5069515;28;20349;-78
2023/03/04 16:15:28;;;;;;;26.70;14.53;;;;;;;6.05;67.07;99506.25;5070032;28;20258;-77
2023/03/04 16:17:55;;;;;;;26.07;14.67;;;;;;;5.91;67.20;99504.19;5051821;28;20028;-77
2023/03/04 16:20:27;;;;;;;25.17;14.00;;;;;;;5.74;67.33;99503.25;5069708;28;20372;-77
2023/03/04 16:22:59;;;;;;;24.73;13.77;;;;;;;5.64;68.78;99512.28;5081845;28;20253;-76
2023/03/04 16:25:26;;;;;;;26.77;14.27;;;;;;;5.59;69.48;99520.69;5058367;28;20265;-77
2023/03/04 16:27:55;;;;;;;24.50;13.87;;;;;;;5.67;69.01;99522.56;5051430;28;20296;-77
2023/03/04 16:30:23;;;;;;;24.13;13.87;;;;;;;5.54;69.73;99517.66;5069131;28;20360;-77
2023/03/04 16:32:50;;;;;;;22.30;14.00;;;;;;;5.44;69.96;99516.94;5069173;28;20249;-77
2023/03/04 16:35:17;;;;;;;26.00;14.73;;;;;;;5.36;70.54;99519.53;5051568;28;20642;-76
2023/03/04 16:37:44;;;;;;;26.03;14.00;;;;;;;5.31;71.32;99535.03;5069127;28;20262;-77
2023/03/04 16:40:15;;;;;;;25.37;14.33;;;;;;;5.27;71.77;99531.06;5068991;28;20375;-77
2023/03/04 16:42:42;;;;;;;25.60;14.50;;;;;;;5.30;72.01;99534.25;5068897;28;20315;-76
2023/03/04 16:45:19;;;;;;;29.23;14.87;;;;;;;5.29;71.48;99534.41;5074273;28;20773;-77
2023/03/04 16:47:45;;;;;;;27.00;14.57;;;;;;;5.17;71.98;99536.44;5069059;28;20300;-74
2023/03/04 16:50:16;;;;;;;28.00;14.73;;;;;;;5.06;73.66;99544.63;5079458;28;20307;-78
2023/03/04 16:52:45;;;;;;;28.70;15.63;;;;;;;4.99;74.42;99554.13;5067780;28;20055;-77
2023/03/04 16:55:20;;;;;;;25.50;14.63;;;;;;;4.89;74.50;99567.44;5066113;28;20268;-77
2023/03/04 16:57:47;;;;;;;26.37;14.53;;;;;;;4.84;75.10;99569.72;5070985;28;20353;-78
2023/03/04 17:00:15;;;;;;;27.47;14.63;;;;;;;4.76;75.77;99574.91;5086015;28;20638;-78
2023/03/04 17:02:42;;;;;;;25.37;14.60;;;;;;;4.73;76.69;99580.50;5068557;28;20257;-78
2023/03/04 17:05:17;;;;;;;26.07;14.40;;;;;;;4.64;77.19;99581.41;5068821;28;20261;-78
2023/03/04 17:07:42;;;;;;;26.43;14.70;;;;;;;4.61;78.35;99579.91;5068508;28;20356;-75
2023/03/04 17:10:09;;;;;;;25.77;14.90;;;;;;;4.60;79.11;99585.34;5075756;28;20341;-76
2023/03/04 17:12:35;;;;;;;24.37;14.20;;;;;;;4.59;78.12;99583.66;5048059;28;20028;-77
2023/03/04 17:15:03;;;;;;;28.97;13.93;;;;;;;4.51;78.83;99594.13;5049348;28;20622;-77
2023/03/04 17:17:29;;;;;;;28.20;15.40;;;;;;;4.47;79.48;99593.63;5075244;28;20032;-76
2023/03/04 17:19:55;;;;;;;26.13;14.33;;;;;;;4.39;80.00;99596.13;5057263;28;20279;-79
2023/03/04 17:22:22;;;;;;;28.03;14.67;;;;;;;4.30;81.10;99605.78;5058278;28;20615;-77
2023/03/04 17:24:49;;;;;;;26.93;14.37;;;;;;;4.25;81.68;99605.41;5076453;28;20064;-79
2023/03/04 17:27:15;;;;;;;25.23;13.93;;;;;;;4.22;82.59;99610.16;5058759;28;20742;-78
2023/03/04 17:29:41;;;;;;;30.17;14.90;;;;;;;4.29;82.79;99622.63;5057981;28;20264;-80
2023/03/04 17:32:07;;;;;;;27.83;14.40;;;;;;;4.39;81.26;99619.97;5056964;28;20036;-79
2023/03/04 17:34:33;;;;;;;26.13;14.20;;;;;;;4.36;81.36;99620.28;5058763;28;20254;-78
2023/03/04 17:36:59;;;;;;;26.13;14.00;;;;;;;4.20;83.03;99612.94;5056231;28;20108;-78
2023/03/04 17:39:24;;;;;;;29.53;14.67;;;;;;;4.30;83.76;99626.97;5055392;28;20078;-79
2023/03/04 17:41:52;;;;;;;23.43;13.90;;;;;;;4.29;83.47;99633.22;5037404;28;20025;-80
2023/03/04 17:44:23;;;;;;;24.97;13.00;;;;;;;4.36;83.46;99634.34;5055440;28;20029;-81
2023/03/04 17:46:48;;;;;;;26.37;14.10;;;;;;;4.36;84.04;99641.44;5056011;28;20265;-80
2023/03/04 17:49:21;;;;;;;25.63;13.37;;;;;;;4.18;86.38;99643.97;5055323;28;20254;-79
2023/03/04 17:51:47;;;;;;;20.83;11.25;;;;;;;4.38;86.67;99647.41;5055270;28;20036;-79
2023/03/04 17:54:13;;;;;;;21.97;11.90;;;;;;;4.44;86.57;99648.63;5058564;28;20474;-79
2023/03/04 17:56:39;;;;;;;18.20;9.93;;;;;;;4.56;85.95;99652.78;5055927;28;20036;-81
2023/03/04 17:59:10;;;;;;;20.17;10.33;;;;;;;4.57;87.03;99655.28;5058406;28;20289;-79
2023/03/04 18:01:35;;;;;;;19.20;10.63;;;;;;;4.45;86.79;99651.16;5055435;28;20104;-79
2023/03/04 18:04:01;;;;;;;19.20;10.50;;;;;;;4.30;87.05;99652.56;5066544;28;20289;-81
2023/03/04 18:06:27;;;;;;;20.20;10.17;;;;;;;4.28;86.21;99654.53;5055325;28;20032;-80
2023/03/04 18:08:53;;;;;;;19.27;10.13;;;;;;;4.18;86.76;99651.91;5061161;28;20253;-81
2023/03/04 18:11:21;;;;;;;17.57;9.93;;;;;;;4.16;87.18;99659.16;5048316;28;20063;-78
2023/03/04 18:13:47;;;;;;;23.13;10.53;;;;;;;4.13;87.00;99651.53;5054556;28;20264;-78
2023/03/04 18:16:17;;;;;;;21.27;10.27;;;;;;;4.06;87.40;99657.50;5036304;28;20262;-78
2023/03/04 18:18:44;;;;;;;20.67;10.23;;;;;;;3.94;87.97;99656.84;5054341;28;20017;-79
2023/03/04 18:21:11;;;;;;;19.57;10.33;;;;;;;3.92;88.81;99664.09;5054139;28;20280;-80
2023/03/04 18:23:36;;;;;;;19.90;10.27;;;;;;;3.77;90.29;99662.84;5053995;28;20312;-79
2023/03/04 18:26:03;;;;;;;22.17;10.53;;;;;;;3.78;90.77;99669.81;5069952;28;20265;-79
2023/03/04 18:28:30;;;;;;;22.17;11.03;;;;;;;3.89;89.58;99664.38;5053357;28;20028;-78
2023/03/04 18:30:55;;;;;;;20.83;10.87;;;;;;;3.76;90.29;99659.38;5063145;28;20304;-79
2023/03/04 18:33:21;;;;;;;18.63;9.93;;;;;;;3.82;90.79;99665.88;5074335;28;20289;-79
2023/03/04 18:35:47;;;;;;;21.27;10.50;;;;;;;3.85;90.99;99670.91;5074245;28;20017;-79
2023/03/04 18:38:12;;;;;;;22.87;10.00;;;;;;;3.79;91.38;99674.13;5073541;28;20106;-78
2023/03/04 18:40:42;;;;;;;17.70;9.83;;;;;;;3.75;91.47;99667.44;5073926;28;20036;-78
2023/03/04 18:43:07;;;;;;;19.23;10.13;;;;;;;3.72;91.26;99673.00;5073692;28;20579;-78
2023/03/04 18:45:33;;;;;;;21.23;10.27;;;;;;;3.54;92.77;99664.94;5073264;28;20257;-78
2023/03/04 18:47:58;;;;;;;21.33;10.37;;;;;;;3.60;93.14;99667.84;5073564;28;20028;-77
2023/03/04 18:50:24;;;;;;;19.93;9.67;;;;;;;3.55;93.68;99658.69;5073601;28;20031;-77
2023/03/04 18:52:54;;;;;;;18.97;10.27;;;;;;;3.40;94.76;99660.06;5073758;28;20389;-77
2023/03/04 18:55:20;;;;;;;21.60;10.50;;;;;;;3.31;95.69;99661.72;5063184;28;20115;-78
2023/03/04 18:57:49;;;;;;;21.97;10.27;;;;;;;3.39;96.13;99667.16;5073718;28;20292;-78
2023/03/04 19:00:19;;;;;;;21.57;11.10;;;;;;;3.27;96.91;99665.59;5068641;28;20435;-78
2023/03/04 19:03:02;;;;;;;19.50;10.47;;;;;;;3.29;97.69;99671.59;5061129;28;21701;-77
2023/03/04 19:05:31;;;;;;;19.60;10.10;;;;;;;3.28;97.44;99667.28;5061647;28;20261;-76
2023/03/04 19:07:57;;;;;;;22.73;10.37;;;;;;;3.26;97.66;99658.66;5053997;28;20432;-77
2023/03/04 19:10:24;;;;;;;19.60;10.20;;;;;;;3.25;98.01;99676.31;5071690;28;20253;-78
2023/03/04 19:12:50;;;;;;;20.60;10.03;;;;;;;3.20;98.07;99673.25;5073455;28;20287;-77
2023/03/04 19:15:17;;;;;;;22.13;10.30;;;;;;;3.17;98.99;99680.59;5073138;28;20619;-76
2023/03/04 19:17:46;;;;;;;20.20;9.67;;;;;;;3.11;99.59;99684.66;5073468;28;20481;-77
2023/03/04 19:20:13;;;;;;;19.00;9.27;;;;;;;3.01;100.00;99677.63;5073238;28;20273;-78
2023/03/04 19:22:39;;;;;;;17.77;10.07;;;;;;;2.98;100.00;99688.50;5073367;28;20355;-78
2023/03/04 19:25:06;;;;;;;19.53;9.17;;;;;;;2.91;100.00;99688.19;5066950;28;20297;-78
2023/03/04 19:27:32;;;;;;;17.53;9.00;;;;;;;2.87;100.00;99692.91;5056388;28;20082;-79
2023/03/04 19:29:57;;;;;;;20.73;9.23;;;;;;;2.85;100.00;99697.47;5053370;28;20254;-78
2023/03/04 19:32:24;;;;;;;22.07;9.47;;;;;;;2.79;100.00;99705.09;5053459;28;20021;-78
2023/03/04 19:34:51;;;;;;;18.27;9.57;;;;;;;2.97;100.00;99697.38;5052832;28;20048;-78
2023/03/04 19:37:17;;;;;;;17.13;8.40;;;;;;;2.81;100.00;99692.59;5053503;28;20282;-78
2023/03/04 19:39:43;;;;;;;19.50;9.10;;;;;;;2.77;100.00;99707.84;5055610;28;20282;-77
2023/03/04 19:42:10;;;;;;;19.43;8.43;;;;;;;2.70;100.00;99709.38;5049467;28;20029;-77
2023/03/04 19:44:36;;;;;;;18.03;8.70;;;;;;;2.79;100.00;99713.84;5053060;28;20265;-77
2023/03/04 19:47:03;;;;;;;15.87;8.33;;;;;;;2.83;100.00;99715.25;5054036;28;20258;-78
2023/03/04 19:49:33;;;;;;;15.67;8.77;;;;;;;2.91;100.00;99720.69;5062784;28;20021;-77
2023/03/04 19:52:00;;;;;;;19.23;8.97;;;;;;;2.78;100.00;99717.44;5060902;28;20731;-77
2023/03/04 19:54:27;;;;;;;20.37;9.40;;;;;;;2.84;100.00;99721.38;5065220;28;20265;-78
2023/03/04 19:56:53;;;;;;;20.30;9.10;;;;;;;2.86;100.00;99722.06;5058766;28;20344;-78
2023/03/04 19:59:20;;;;;;;18.50;8.60;;;;;;;2.97;100.00;99729.91;5063401;28;20285;-78
2023/03/04 20:01:46;;;;;;;17.53;8.50;;;;;;;2.98;100.00;99730.72;5060833;28;20687;-78
2023/03/04 20:04:16;;;;;;;19.07;8.90;;;;;;;2.92;100.00;99710.97;5065706;28;20324;-78
2023/03/04 20:06:45;;;;;;;15.63;8.13;;;;;;;2.87;100.00;99716.66;5072998;28;20349;-78
2023/03/04 20:09:13;;;;;;;15.13;7.80;;;;;;;2.89;100.00;99721.78;5067894;28;20731;-77
2023/03/04 20:11:39;;;;;;;16.43;8.50;;;;;;;2.89;100.00;99730.53;5060878;28;20312;-78
2023/03/04 20:14:05;;;;;;;16.80;8.70;;;;;;;2.90;100.00;99734.03;5067093;28;20265;-78
2023/03/04 20:16:32;;;;;;;19.70;9.20;;;;;;;2.79;100.00;99731.47;5054612;28;20265;-77
2023/03/04 20:19:01;;;;;;;17.47;8.27;;;;;;;2.88;100.00;99734.16;5052737;28;20128;-76
2023/03/04 20:21:29;;;;;;;18.17;8.80;;;;;;;2.90;100.00;99734.84;5034956;28;20273;-76
2023/03/04 20:23:57;;;;;;;16.03;8.40;;;;;;;2.80;100.00;99735.78;5059035;28;20319;-77
2023/03/04 20:26:23;;;;;;;19.47;8.97;;;;;;;2.82;100.00;99734.69;5062026;28;20801;-79
2023/03/04 20:28:49;;;;;;;16.77;8.90;;;;;;;2.77;100.00;99733.44;5058194;28;20253;-76
2023/03/04 20:31:25;;;;;;;20.00;8.73;;;;;;;2.71;100.00;99733.94;5061713;28;20028;-76
2023/03/04 20:33:53;;;;;;;19.63;9.10;;;;;;;2.54;100.00;99735.38;5061060;28;20250;-76
2023/03/04 20:36:21;;;;;;;19.23;9.13;;;;;;;2.51;100.00;99733.88;5043081;28;20817;-76
2023/03/04 20:38:48;;;;;;;19.47;9.13;;;;;;;2.59;100.00;99737.63;5058420;28;20284;-77
2023/03/04 20:41:13;;;;;;;21.20;9.07;;;;;;;2.69;100.00;99735.88;5072320;28;20259;-77
2023/03/04 20:43:39;;;;;;;19.90;9.17;;;;;;;2.69;100.00;99735.88;5072678;28;20300;-77
2023/03/04 20:46:27;;;;;;;18.60;9.10;;;;;;;2.62;100.00;99730.31;5067011;28;20431;-78
2023/03/04 20:49:00;;;;;;;19.27;9.50;;;;;;;2.69;100.00;99727.97;5056404;28;20811;-78
2023/03/04 20:51:28;;;;;;;19.20;10.30;;;;;;;2.70;100.00;99729.63;5056878;28;20258;-78
2023/03/04 20:53:55;;;;;;;18.90;9.27;;;;;;;2.79;100.00;99726.19;5056372;28;20385;-77
2023/03/04 20:56:24;;;;;;;18.10;9.17;;;;;;;2.91;100.00;99722.50;5056020;28;20666;-78
2023/03/04 20:58:51;;;;;;;20.67;9.87;;;;;;;2.94;100.00;99721.41;5056002;28;20778;-77
2023/03/04 21:01:17;;;;;;;21.70;9.77;;;;;;;2.91;100.00;99722.50;5055857;28;20265;-77
2023/03/04 21:03:43;;;;;;;22.23;9.93;;;;;;;3.01;100.00;99706.69;5056066;28;20258;-77
2023/03/04 21:06:11;;;;;;;20.53;10.13;;;;;;;3.15;100.00;99722.16;5055917;28;20052;-78
2023/03/04 21:08:38;;;;;;;23.87;11.63;;;;;;;3.08;100.00;99715.75;5055961;28;20088;-77
2023/03/04 21:11:04;;;;;;;24.10;11.53;;;;;;;3.08;100.00;99715.75;5055860;28;20315;-77
2023/03/04 21:13:31;;;;;;;20.93;10.23;;;;;;;3.14;100.00;99721.31;5055864;28;20262;-77
2023/03/04 21:15:57;;;;;;;23.67;11.37;;;;;;;3.10;100.00;99721.75;5055781;28;20046;-77
2023/03/04 21:18:24;;;;;;;23.23;11.73;;;;;;;2.96;100.00;99716.81;5055767;28;20258;-78
2023/03/04 21:20:50;;;;;;;23.80;10.70;;;;;;;2.96;100.00;99727.38;5055673;28;20651;-78
2023/03/04 21:23:20;;;;;;;23.33;11.20;;;;;;;2.95;100.00;99731.00;5055760;28;20254;-77
2023/03/04 21:25:47;;;;;;;23.37;11.30;;;;;;;2.83;100.00;99723.16;5055755;28;20619;-77
2023/03/04 21:28:14;;;;;;;22.47;11.30;;;;;;;2.87;100.00;99729.03;5055668;28;20285;-78
2023/03/04 21:30:40;;;;;;;22.80;10.90;;;;;;;2.86;100.00;99720.28;5055481;28;20261;-78
2023/03/04 21:33:12;;;;;;;23.27;11.37;;;;;;;2.89;100.00;99724.44;5055538;28;20258;-78
2023/03/04 21:35:38;;;;;;;23.50;12.07;;;;;;;2.85;100.00;99715.13;5055630;28;20258;-78
2023/03/04 21:38:04;;;;;;;25.47;11.70;;;;;;;2.80;100.00;99718.16;5055651;28;20277;-77
2023/03/04 21:40:29;;;;;;;24.57;12.50;;;;;;;2.80;100.00;99718.16;5055343;28;20277;-78
2023/03/04 21:42:55;;;;;;;25.63;12.63;;;;;;;2.77;100.00;99713.13;5055531;28;20120;-77
2023/03/04 21:45:21;;;;;;;22.47;11.83;;;;;;;2.70;100.00;99704.09;5055978;28;20104;-78
2023/03/04 21:47:48;;;;;;;26.93;12.83;;;;;;;2.70;100.00;99704.09;5056041;28;20293;-78
2023/03/04 21:50:13;;;;;;;27.07;12.63;;;;;;;2.65;100.00;99697.56;5055393;28;20207;-77
2023/03/04 21:52:39;;;;;;;25.43;12.10;;;;;;;2.72;100.00;99696.88;5055372;28;20348;-78
2023/03/04 21:55:05;;;;;;;25.63;12.00;;;;;;;2.79;100.00;99689.25;5055232;28;20471;-77
2023/03/04 21:57:32;;;;;;;26.10;12.50;;;;;;;2.79;100.00;99692.72;5037781;28;20258;-77
2023/03/04 21:59:57;;;;;;;26.93;13.07;;;;;;;2.68;100.00;99689.34;5054733;28;20147;-78
2023/03/04 22:02:24;;;;;;;26.63;12.30;;;;;;;2.60;100.00;99695.28;5055056;28;20254;-78
2023/03/04 22:04:49;;;;;;;26.50;12.77;;;;;;;2.57;100.00;99687.63;5054958;28;20028;-77
2023/03/04 22:07:15;;;;;;;28.27;13.20;;;;;;;2.58;100.00;99694.59;5054861;28;20250;-77
2023/03/04 22:09:40;;;;;;;26.77;13.37;;;;;;;2.62;100.00;99692.53;5054743;28;20016;-78
2023/03/04 22:12:06;;;;;;;28.17;13.83;;;;;;;2.61;100.00;99691.69;5054634;28;20519;-77
2023/03/04 22:14:32;;;;;;;27.70;13.43;;;;;;;2.49;100.00;99690.09;5054820;28;20103;-78
2023/03/04 22:16:58;;;;;;;27.40;13.77;;;;;;;2.51;100.00;99678.47;5054569;28;20033;-77
2023/03/04 22:19:28;;;;;;;29.20;13.73;;;;;;;2.47;100.00;99687.59;5054664;28;20422;-78
2023/03/04 22:21:54;;;;;;;27.90;12.87;;;;;;;2.52;100.00;99680.13;5036892;28;20349;-77
2023/03/04 22:24:19;;;;;;;29.43;13.17;;;;;;;2.42;100.00;99687.13;5054804;28;20336;-77
2023/03/04 22:26:48;;;;;;;30.00;14.30;;;;;;;2.38;100.00;99675.22;5054504;28;20096;-77
2023/03/04 22:29:13;;;;;;;29.47;14.27;;;;;;;2.41;100.00;99674.13;5054501;28;20436;-77
2023/03/04 22:31:48;;;;;;;30.90;13.67;;;;;;;2.39;100.00;99676.88;5054761;28;20297;-77
2023/03/04 22:34:15;;;;;;;31.63;15.33;;;;;;;2.25;100.00;99669.31;5036699;28;20535;-78
2023/03/04 22:36:42;;;;;;;30.40;14.33;;;;;;;2.39;100.00;99671.59;5054330;28;20320;-78
2023/03/04 22:39:11;;;;;;;30.23;14.27;;;;;;;2.41;100.00;99672.31;5053970;28;20281;-78
2023/03/04 22:41:36;;;;;;;33.67;14.33;;;;;;;2.43;100.00;99672.16;5054097;28;20789;-78
2023/03/04 22:44:04;;;;;;;30.73;14.53;;;;;;;2.41;100.00;99671.47;5054156;28;20266;-78
2023/03/04 22:46:34;;;;;;;32.30;14.03;;;;;;;2.45;100.00;99662.31;5054194;28;20025;-77
2023/03/04 22:49:08;;;;;;;30.07;14.40;;;;;;;2.41;100.00;99669.69;5054023;28;20365;-77
2023/03/04 22:51:33;;;;;;;28.50;13.48;;;;;;;2.46;100.00;99663.97;5053922;28;20711;-77
2023/03/04 22:53:59;;;;;;;29.33;14.30;;;;;;;2.35;100.00;99664.06;5053916;28;20041;-77
2023/03/04 22:56:24;;;;;;;30.37;13.40;;;;;;;2.43;100.00;99665.06;5053921;28;20493;-77
2023/03/04 22:58:51;;;;;;;31.50;14.57;;;;;;;2.37;100.00;99673.53;5053565;28;20449;-77
2023/03/04 23:01:18;;;;;;;31.30;14.10;;;;;;;2.41;100.00;99674.13;5053632;28;20367;-77
2023/03/04 23:03:46;;;;;;;30.13;14.40;;;;;;;2.34;100.00;99668.50;5053982;28;20258;-77
2023/03/04 23:06:16;;;;;;;28.87;13.67;;;;;;;2.40;100.00;99662.72;5053661;28;20294;-77
2023/03/04 23:08:44;;;;;;;30.30;13.97;;;;;;;2.28;100.00;99674.31;5053245;28;20719;-77
2023/03/04 23:11:21;;;;;;;30.97;14.63;;;;;;;2.48;100.00;99664.69;5054105;28;20261;-77
2023/03/04 23:13:48;;;;;;;33.70;14.37;;;;;;;2.43;100.00;99669.50;5054513;28;20284;-77
2023/03/04 23:16:15;;;;;;;31.37;14.77;;;;;;;2.51;100.00;99669.72;5053329;28;20261;-77
2023/03/04 23:18:42;;;;;;;29.83;14.60;;;;;;;2.36;100.00;99649.91;5053279;28;20663;-77
2023/03/04 23:21:11;;;;;;;31.37;14.63;;;;;;;2.33;100.00;99658.09;5053479;28;20266;-77
2023/03/04 23:23:38;;;;;;;32.03;15.03;;;;;;;2.31;100.00;99660.06;5053519;28;20261;-77
2023/03/04 23:26:04;;;;;;;31.70;13.67;;;;;;;2.44;100.00;99658.84;5035623;28;20293;-77
2023/03/04 23:28:31;;;;;;;31.47;14.90;;;;;;;2.34;100.00;99663.22;5053419;28;20357;-77
2023/03/04 23:30:57;;;;;;;31.20;15.07;;;;;;;2.35;100.00;99650.88;5053268;28;20266;-77
2023/03/04 23:33:22;;;;;;;35.27;14.97;;;;;;;2.38;100.00;99651.47;5053242;28;20257;-77
2023/03/04 23:35:48;;;;;;;30.37;14.60;;;;;;;2.41;100.00;99660.94;5035443;28;20381;-77
2023/03/04 23:38:13;;;;;;;30.73;14.90;;;;;;;2.33;100.00;99648.38;5053179;28;20479;-77
2023/03/04 23:40:39;;;;;;;35.47;14.53;;;;;;;2.35;100.00;99642.97;5053028;28;20494;-77
2023/03/04 23:43:05;;;;;;;33.33;15.53;;;;;;;2.38;100.00;99646.19;5053284;28;20446;-77
2023/03/04 23:45:32;;;;;;;30.47;13.90;;;;;;;2.35;100.00;99648.25;5053156;28;20024;-77
2023/03/04 23:47:58;;;;;;;33.57;14.87;;;;;;;2.30;100.00;99648.66;5053195;28;20025;-77
2023/03/04 23:50:23;;;;;;;30.30;14.67;;;;;;;2.41;100.00;99650.38;5052988;28;20723;-77
2023/03/04 23:52:49;;;;;;;31.53;14.17;;;;;;;2.51;100.00;99643.34;5052971;28;20024;-77
2023/03/04 23:55:17;;;;;;;28.73;13.40;;;;;;;2.61;100.00;99632.81;5052963;28;20057;-78
2023/03/04 23:57:44;;;;;;;33.70;15.67;;;;;;;2.47;100.00;99641.91;5052997;28;20102;-77
